createdAt,value
2019-03-01T00:00:09.194Z,4.70
2019-03-01T00:02:38.496Z,4.60
2019-03-01T00:05:55.741Z,4.60
2019-03-01T00:08:34.185Z,4.60
2019-03-01T00:11:34.701Z,4.60
2019-03-01T00:14:38.241Z,4.60
2019-03-01T00:17:48.813Z,4.50
2019-03-01T00:20:29.722Z,4.50
2019-03-01T00:23:47.971Z,4.40
2019-03-01T00:27:13.317Z,4.40
2019-03-01T00:30:15.662Z,4.40
2019-03-01T00:33:23.906Z,4.30
2019-03-01T00:36:46.740Z,4.30
2019-03-01T00:40:07.216Z,4.30
2019-03-01T00:43:27.947Z,4.30
2019-03-01T00:45:56.913Z,4.30
2019-03-01T00:48:25.962Z,4.30
2019-03-01T00:51:01.714Z,4.30
2019-03-01T00:53:30.844Z,4.30
2019-03-01T00:56:00.007Z,4.30
2019-03-01T00:58:35.162Z,4.40
2019-03-01T01:01:04.219Z,4.40
2019-03-01T01:03:33.199Z,4.40
2019-03-01T01:06:08.309Z,4.40
2019-03-01T01:08:37.535Z,4.50
2019-03-01T01:11:06.797Z,4.50
2019-03-01T01:13:42.575Z,4.50
2019-03-01T01:16:11.974Z,4.50
2019-03-01T01:18:40.892Z,4.50
2019-03-01T01:21:16.754Z,4.50
2019-03-01T01:23:45.466Z,4.50
2019-03-01T01:26:14.207Z,4.50
2019-03-01T01:28:50.071Z,4.60
2019-03-01T01:31:18.796Z,4.60
2019-03-01T01:34:00.973Z,4.60
2019-03-01T01:36:29.662Z,4.60
2019-03-01T01:39:12.773Z,4.60
2019-03-01T01:41:48.295Z,4.60
2019-03-01T01:44:23.786Z,4.60
2019-03-01T01:46:52.562Z,4.60
2019-03-01T01:49:21.310Z,4.60
2019-03-01T01:51:56.686Z,4.60
2019-03-01T01:58:12.880Z,4.60
2019-03-01T02:00:41.582Z,4.60
2019-03-01T02:03:10.368Z,4.60
2019-03-01T02:05:45.369Z,4.60
2019-03-01T02:08:14.103Z,4.50
2019-03-01T02:10:42.846Z,4.50
2019-03-01T02:13:20.811Z,4.40
2019-03-01T02:15:49.560Z,4.30
2019-03-01T02:18:18.353Z,4.30
2019-03-01T02:20:54.252Z,4.20
2019-03-01T02:23:22.991Z,4.10
2019-03-01T02:25:51.683Z,4.00
2019-03-01T02:28:27.127Z,3.90
2019-03-01T02:30:56.392Z,3.80
2019-03-01T02:33:25.106Z,3.70
2019-03-01T02:36:06.840Z,3.60
2019-03-01T02:38:42.023Z,3.50
2019-03-01T02:41:24.771Z,3.40
2019-03-01T02:43:53.644Z,3.40
2019-03-01T02:46:22.341Z,3.30
2019-03-01T02:48:57.579Z,3.30
2019-03-01T02:51:26.293Z,3.30
2019-03-01T02:53:55.023Z,3.20
2019-03-01T02:56:30.213Z,3.30
2019-03-01T02:58:58.964Z,3.30
2019-03-01T03:01:27.661Z,3.30
2019-03-01T03:04:02.680Z,3.30
2019-03-01T03:06:42.947Z,3.30
2019-03-01T03:09:19.229Z,3.40
2019-03-01T03:11:48.012Z,3.30
2019-03-01T03:14:16.738Z,3.30
2019-03-01T03:16:51.770Z,3.20
2019-03-01T03:19:20.500Z,3.10
2019-03-01T03:21:49.190Z,3.10
2019-03-01T03:24:24.840Z,3.20
2019-03-01T03:26:53.516Z,3.30
2019-03-01T03:29:22.224Z,3.20
2019-03-01T03:31:58.011Z,3.20
2019-03-01T03:34:26.739Z,3.30
2019-03-01T03:37:09.117Z,3.30
2019-03-01T03:39:44.392Z,3.30
2019-03-01T03:42:27.007Z,3.30
2019-03-01T03:44:55.728Z,3.30
2019-03-01T03:47:24.469Z,3.40
2019-03-01T03:49:59.688Z,3.40
2019-03-01T03:52:28.430Z,3.40
2019-03-01T03:54:57.203Z,3.40
2019-03-01T03:57:32.853Z,3.40
2019-03-01T04:00:01.564Z,3.50
2019-03-01T04:02:30.280Z,3.50
2019-03-01T04:05:05.765Z,3.60
2019-03-01T04:07:34.463Z,3.60
2019-03-01T04:10:03.417Z,3.60
2019-03-01T04:12:39.017Z,3.60
2019-03-01T04:15:08.932Z,3.60
2019-03-01T04:17:37.646Z,3.60
2019-03-01T04:20:14.902Z,3.70
2019-03-01T04:22:43.652Z,3.70
2019-03-01T04:25:12.609Z,3.70
2019-03-01T04:27:47.822Z,3.70
2019-03-01T04:30:16.977Z,3.70
2019-03-01T04:32:45.839Z,3.70
2019-03-01T04:35:21.796Z,3.70
2019-03-01T04:37:57.563Z,3.70
2019-03-01T04:40:39.174Z,3.70
2019-03-01T04:43:14.789Z,3.70
2019-03-01T04:45:50.368Z,3.70
2019-03-01T04:48:25.861Z,3.70
2019-03-01T04:51:00.813Z,3.80
2019-03-01T04:53:29.554Z,3.80
2019-03-01T04:55:58.303Z,3.80
2019-03-01T04:58:33.729Z,3.80
2019-03-01T05:01:02.640Z,3.80
2019-03-01T05:03:31.356Z,3.70
2019-03-01T05:06:06.470Z,3.70
2019-03-01T05:08:35.182Z,3.70
2019-03-01T05:11:04.164Z,3.60
2019-03-01T05:13:39.618Z,3.70
2019-03-01T05:16:08.336Z,3.70
2019-03-01T05:18:37.067Z,3.70
2019-03-01T05:21:12.027Z,3.70
2019-03-01T05:23:40.766Z,3.70
2019-03-01T05:26:09.484Z,3.70
2019-03-01T05:28:45.124Z,3.70
2019-03-01T05:31:13.882Z,3.70
2019-03-01T05:33:42.581Z,3.70
2019-03-01T05:36:17.603Z,3.70
2019-03-01T05:38:53.170Z,3.70
2019-03-01T05:41:34.792Z,3.70
2019-03-01T05:44:10.444Z,3.70
2019-03-01T05:46:46.196Z,3.80
2019-03-01T05:49:15.134Z,3.80
2019-03-01T05:51:43.872Z,3.80
2019-03-01T05:54:18.697Z,3.80
2019-03-01T05:56:48.560Z,3.80
2019-03-01T05:59:30.937Z,3.80
2019-03-01T06:02:47.149Z,3.80
2019-03-01T06:05:47.669Z,3.80
2019-03-01T06:08:45.788Z,3.80
2019-03-01T06:12:07.042Z,3.80
2019-03-01T06:15:18.147Z,3.90
2019-03-01T06:18:34.549Z,3.90
2019-03-01T06:21:47.986Z,3.90
2019-03-01T06:24:56.330Z,3.90
2019-03-01T06:28:27.561Z,3.90
2019-03-01T06:31:47.345Z,3.90
2019-03-01T06:34:41.504Z,3.90
2019-03-01T06:37:25.447Z,3.90
2019-03-01T06:40:59.713Z,3.90
2019-03-01T06:44:09.839Z,3.90
2019-03-01T06:47:03.717Z,4.00
2019-03-01T06:49:57.857Z,4.00
2019-03-01T06:52:26.624Z,4.00
2019-03-01T06:54:55.386Z,4.00
2019-03-01T06:57:30.247Z,4.00
2019-03-01T07:00:00.343Z,4.00
2019-03-01T07:02:54.358Z,4.00
2019-03-01T07:05:23.144Z,4.00
2019-03-01T07:07:51.891Z,4.00
2019-03-01T07:10:27.540Z,4.00
2019-03-01T07:12:59.285Z,4.00
2019-03-01T07:15:28.135Z,4.00
2019-03-01T07:18:03.061Z,4.00
2019-03-01T07:20:33.480Z,4.00
2019-03-01T07:23:02.199Z,4.00
2019-03-01T07:25:37.638Z,4.00
2019-03-01T07:28:06.360Z,4.00
2019-03-01T07:30:35.622Z,4.00
2019-03-01T07:33:11.269Z,4.00
2019-03-01T07:35:40.036Z,4.00
2019-03-01T07:38:08.770Z,4.10
2019-03-01T07:40:51.312Z,4.10
2019-03-01T07:43:26.495Z,4.10
2019-03-01T07:46:01.554Z,4.10
2019-03-01T07:48:30.331Z,4.10
2019-03-01T07:50:59.069Z,4.10
2019-03-01T07:53:36.038Z,4.10
2019-03-01T07:56:05.280Z,4.10
2019-03-01T07:58:34.375Z,4.10
2019-03-01T08:01:09.723Z,4.10
2019-03-01T08:03:38.714Z,4.20
2019-03-01T08:06:13.172Z,4.20
2019-03-01T08:08:44.533Z,4.20
2019-03-01T08:11:13.452Z,4.20
2019-03-01T08:13:42.242Z,4.20
2019-03-01T08:16:20.099Z,4.30
2019-03-01T08:18:47.670Z,4.30
2019-03-01T08:21:17.492Z,4.40
2019-03-01T08:23:52.554Z,4.40
2019-03-01T08:26:21.336Z,4.40
2019-03-01T08:28:50.091Z,4.40
2019-03-01T08:31:25.151Z,4.40
2019-03-01T08:33:53.948Z,4.40
2019-03-01T08:36:22.703Z,4.50
2019-03-01T08:39:00.967Z,4.50
2019-03-01T08:41:48.384Z,4.50
2019-03-01T08:44:24.257Z,4.60
2019-03-01T08:46:53.186Z,4.60
2019-03-01T08:49:22.192Z,4.60
2019-03-01T08:51:58.557Z,4.60
2019-03-01T08:54:28.405Z,4.60
2019-03-01T08:56:57.272Z,4.60
2019-03-01T08:59:32.429Z,4.60
2019-03-01T09:02:01.207Z,4.60
2019-03-01T09:04:29.975Z,4.60
2019-03-01T09:07:06.566Z,4.60
2019-03-01T09:09:35.389Z,4.60
2019-03-01T09:12:04.221Z,4.60
2019-03-01T09:14:39.475Z,4.60
2019-03-01T09:17:08.286Z,4.60
2019-03-01T09:19:37.087Z,4.60
2019-03-01T09:22:12.978Z,4.60
2019-03-01T09:24:41.702Z,4.60
2019-03-01T09:27:10.846Z,4.60
2019-03-01T09:29:46.430Z,4.60
2019-03-01T09:32:15.243Z,4.60
2019-03-01T09:34:45.367Z,4.60
2019-03-01T09:37:20.376Z,4.60
2019-03-01T09:39:50.394Z,4.70
2019-03-01T09:42:39.060Z,4.70
2019-03-01T09:45:10.431Z,4.60
2019-03-01T09:47:40.107Z,4.70
2019-03-01T09:50:16.487Z,4.70
2019-03-01T09:52:48.462Z,4.70
2019-03-01T09:55:18.246Z,4.70
2019-03-01T09:57:54.095Z,4.70
2019-03-01T10:00:23.620Z,4.70
2019-03-01T10:02:52.707Z,4.70
2019-03-01T10:05:28.234Z,4.80
2019-03-01T10:07:56.990Z,4.80
2019-03-01T10:10:27.412Z,4.80
2019-03-01T10:13:03.076Z,4.80
2019-03-01T10:15:31.887Z,4.90
2019-03-01T10:18:00.772Z,5.00
2019-03-01T10:20:35.867Z,5.00
2019-03-01T10:23:04.740Z,5.10
2019-03-01T10:25:33.713Z,5.10
2019-03-01T10:28:08.980Z,5.20
2019-03-01T10:30:37.924Z,5.20
2019-03-01T10:33:06.960Z,5.30
2019-03-01T10:35:42.777Z,5.20
2019-03-01T10:38:11.646Z,5.20
2019-03-01T10:40:40.837Z,5.20
2019-03-01T10:43:23.518Z,5.10
2019-03-01T10:45:59.091Z,5.10
2019-03-01T10:48:35.122Z,5.10
2019-03-01T10:51:03.904Z,5.20
2019-03-01T10:53:32.653Z,5.20
2019-03-01T10:56:07.750Z,5.20
2019-03-01T10:58:36.556Z,5.20
2019-03-01T11:01:05.972Z,5.10
2019-03-01T11:03:41.394Z,5.10
2019-03-01T11:06:10.306Z,5.20
2019-03-01T11:08:39.109Z,5.10
2019-03-01T11:11:14.840Z,5.20
2019-03-01T11:13:43.669Z,5.20
2019-03-01T11:16:16.773Z,5.20
2019-03-01T11:19:00.797Z,5.20
2019-03-01T11:21:35.838Z,5.30
2019-03-01T11:24:20.473Z,5.30
2019-03-01T11:26:50.718Z,5.30
2019-03-01T11:29:19.617Z,5.30
2019-03-01T11:32:00.123Z,5.10
2019-03-01T11:34:30.002Z,5.00
2019-03-01T11:37:10.423Z,5.00
2019-03-01T11:39:39.984Z,5.10
2019-03-01T11:42:08.865Z,5.20
2019-03-01T11:44:50.802Z,5.20
2019-03-01T11:47:26.212Z,5.10
2019-03-01T11:50:01.110Z,5.20
2019-03-01T11:52:29.833Z,5.30
2019-03-01T11:54:58.618Z,5.30
2019-03-01T11:57:33.597Z,5.30
2019-03-01T12:00:02.391Z,5.40
2019-03-01T12:02:31.222Z,5.30
2019-03-01T12:05:07.002Z,5.20
2019-03-01T12:07:35.816Z,5.30
2019-03-01T12:10:05.764Z,5.30
2019-03-01T12:12:41.469Z,5.30
2019-03-01T12:15:10.369Z,5.30
2019-03-01T12:17:39.256Z,5.30
2019-03-01T12:20:16.335Z,5.20
2019-03-01T12:22:45.116Z,5.10
2019-03-01T12:25:14.073Z,5.10
2019-03-01T12:27:49.559Z,5.20
2019-03-01T12:30:19.946Z,5.20
2019-03-01T12:32:48.684Z,5.20
2019-03-01T12:35:24.292Z,5.30
2019-03-01T12:37:53.112Z,5.30
2019-03-01T12:40:23.716Z,5.30
2019-03-01T12:42:58.808Z,5.30
2019-03-01T12:45:40.956Z,5.40
2019-03-01T12:48:16.674Z,5.30
2019-03-01T12:50:45.449Z,5.30
2019-03-01T12:53:14.163Z,5.20
2019-03-01T12:55:49.880Z,5.20
2019-03-01T12:58:19.740Z,5.10
2019-03-01T13:00:48.599Z,5.00
2019-03-01T13:03:24.376Z,5.10
2019-03-01T13:05:53.179Z,5.00
2019-03-01T13:08:21.966Z,4.80
2019-03-01T13:10:56.913Z,4.80
2019-03-01T13:13:25.703Z,4.70
2019-03-01T13:15:54.441Z,4.70
2019-03-01T13:18:30.230Z,4.70
2019-03-01T13:20:59.193Z,4.50
2019-03-01T13:23:27.936Z,4.60
2019-03-01T13:26:06.166Z,4.70
2019-03-01T13:28:34.337Z,4.60
2019-03-01T13:31:03.259Z,4.70
2019-03-01T13:33:39.096Z,4.70
2019-03-01T13:36:08.434Z,4.70
2019-03-01T13:38:37.821Z,4.70
2019-03-01T13:41:13.134Z,4.90
2019-03-01T13:44:04.149Z,4.90
2019-03-01T13:46:45.505Z,4.90
2019-03-01T13:49:14.220Z,5.00
2019-03-01T13:51:43.474Z,5.10
2019-03-01T13:54:20.747Z,5.10
2019-03-01T13:56:50.850Z,5.10
2019-03-01T13:59:19.825Z,5.20
2019-03-01T14:01:55.117Z,5.30
2019-03-01T14:04:27.108Z,5.30
2019-03-01T14:06:55.874Z,5.30
2019-03-01T14:09:30.762Z,5.30
2019-03-01T14:12:00.375Z,5.40
2019-03-01T14:14:29.566Z,5.50
2019-03-01T14:17:05.135Z,5.60
2019-03-01T14:19:34.001Z,5.60
2019-03-01T14:22:05.283Z,5.60
2019-03-01T14:24:40.477Z,5.60
2019-03-01T14:27:09.377Z,5.60
2019-03-01T14:29:38.114Z,5.60
2019-03-01T14:32:15.376Z,5.70
2019-03-01T14:34:48.629Z,5.70
2019-03-01T14:37:18.492Z,5.70
2019-03-01T14:39:53.113Z,5.70
2019-03-01T14:42:21.964Z,5.70
2019-03-01T14:45:06.633Z,5.60
2019-03-01T14:47:41.040Z,5.70
2019-03-01T14:50:18.248Z,5.70
2019-03-01T14:52:46.996Z,5.70
2019-03-01T14:55:28.777Z,5.70
2019-03-01T14:58:01.360Z,5.80
2019-03-01T15:00:49.654Z,5.70
2019-03-01T15:03:34.519Z,5.80
2019-03-01T15:06:10.597Z,5.80
2019-03-01T15:08:44.239Z,5.80
2019-03-01T15:11:22.876Z,5.70
2019-03-01T15:13:53.178Z,5.70
2019-03-01T15:16:22.048Z,5.80
2019-03-01T15:18:57.474Z,5.60
2019-03-01T15:21:26.273Z,5.60
2019-03-01T15:23:56.131Z,5.60
2019-03-01T15:26:32.484Z,5.60
2019-03-01T15:29:07.735Z,5.40
2019-03-01T15:31:42.890Z,5.50
2019-03-01T15:34:11.720Z,5.50
2019-03-01T15:36:40.614Z,5.40
2019-03-01T15:46:19.799Z,5.20
2019-03-01T15:48:55.768Z,5.10
2019-03-01T15:51:34.719Z,5.10
2019-03-01T15:54:02.160Z,5.10
2019-03-01T15:56:30.945Z,5.10
2019-03-01T15:59:09.686Z,5.00
2019-03-01T16:01:37.491Z,5.00
2019-03-01T16:04:06.306Z,5.00
2019-03-01T16:06:41.365Z,5.00
2019-03-01T16:09:16.178Z,5.00
2019-03-01T16:11:53.213Z,5.00
2019-03-01T16:14:24.214Z,5.00
2019-03-01T16:16:52.577Z,4.90
2019-03-01T16:19:28.141Z,4.90
2019-03-01T16:21:57.734Z,4.90
2019-03-01T16:24:26.480Z,4.90
2019-03-01T16:27:02.191Z,4.90
2019-03-01T16:29:30.973Z,4.80
2019-03-01T16:32:18.695Z,4.80
2019-03-01T16:34:47.801Z,4.80
2019-03-01T16:37:17.304Z,4.80
2019-03-01T16:39:56.073Z,4.80
2019-03-01T16:42:23.925Z,4.70
2019-03-01T16:45:12.951Z,4.70
2019-03-01T16:47:48.068Z,4.60
2019-03-01T16:50:29.904Z,4.60
2019-03-01T16:53:04.236Z,4.60
2019-03-01T16:55:29.247Z,4.60
2019-03-01T16:58:07.182Z,4.60
2019-03-01T17:00:35.888Z,4.50
2019-03-01T17:03:05.255Z,4.50
2019-03-01T17:05:40.869Z,4.50
2019-03-01T17:08:09.679Z,4.40
2019-03-01T17:10:38.631Z,4.40
2019-03-01T17:13:13.814Z,4.40
2019-03-01T17:15:45.508Z,4.40
2019-03-01T17:18:14.211Z,4.30
2019-03-01T17:21:08.570Z,4.20
2019-03-01T17:23:39.304Z,4.20
2019-03-01T17:26:07.549Z,4.20
2019-03-01T17:28:43.023Z,4.20
2019-03-01T17:31:11.875Z,4.10
2019-03-01T17:33:41.279Z,4.10
2019-03-01T17:36:16.806Z,4.10
2019-03-01T17:38:46.940Z,4.00
2019-03-01T17:41:16.001Z,4.00
2019-03-01T17:43:51.823Z,4.00
2019-03-01T17:46:47.772Z,3.90
2019-03-01T17:49:23.654Z,4.00
2019-03-01T17:51:59.134Z,3.90
2019-03-01T17:54:36.267Z,3.90
2019-03-01T17:57:05.106Z,3.90
2019-03-01T17:59:34.900Z,3.90
2019-03-01T18:02:12.135Z,3.90
2019-03-01T18:04:40.495Z,3.80
2019-03-01T18:07:09.306Z,3.80
2019-03-01T18:09:45.233Z,3.80
2019-03-01T18:12:14.049Z,3.80
2019-03-01T18:14:42.788Z,3.80
2019-03-01T18:17:18.353Z,3.80
2019-03-01T18:19:47.097Z,3.80
2019-03-01T18:22:15.934Z,3.80
2019-03-01T18:24:51.126Z,3.80
2019-03-01T18:27:20.397Z,3.80
2019-03-01T18:29:49.210Z,3.80
2019-03-01T18:32:26.315Z,3.80
2019-03-01T18:34:54.977Z,3.70
2019-03-01T18:37:23.773Z,3.70
2019-03-01T18:39:59.515Z,3.70
2019-03-01T18:42:28.373Z,3.70
2019-03-01T18:44:57.149Z,3.70
2019-03-01T18:47:32.062Z,3.60
2019-03-01T18:50:07.540Z,3.60
2019-03-01T18:52:49.651Z,3.60
2019-03-01T18:55:20.042Z,3.60
2019-03-01T18:57:58.040Z,3.60
2019-03-01T19:00:32.573Z,3.60
2019-03-01T19:03:27.933Z,3.60
2019-03-01T19:05:56.768Z,3.60
2019-03-01T19:08:25.592Z,3.60
2019-03-01T19:11:02.908Z,3.60
2019-03-01T19:13:31.952Z,3.60
2019-03-01T19:16:00.722Z,3.50
2019-03-01T19:18:35.899Z,3.50
2019-03-01T19:21:04.643Z,3.50
2019-03-01T19:23:33.476Z,3.50
2019-03-01T19:26:08.742Z,3.50
2019-03-01T19:28:37.709Z,3.50
2019-03-01T19:31:06.615Z,3.50
2019-03-01T19:33:42.386Z,3.40
2019-03-01T19:36:11.187Z,3.40
2019-03-01T19:38:39.982Z,3.40
2019-03-01T19:41:14.960Z,3.40
2019-03-01T19:43:45.713Z,3.40
2019-03-01T19:46:15.685Z,3.40
2019-03-01T19:48:51.357Z,3.40
2019-03-01T19:51:26.481Z,3.30
2019-03-01T19:54:08.491Z,3.30
2019-03-01T19:56:37.254Z,3.30
2019-03-01T19:59:06.016Z,3.30
2019-03-01T20:01:41.049Z,3.30
2019-03-01T20:04:09.897Z,3.30
2019-03-01T20:06:39.724Z,3.30
2019-03-01T20:09:15.892Z,3.30
2019-03-01T20:15:32.306Z,3.30
2019-03-01T20:18:01.132Z,3.30
2019-03-01T20:20:33.359Z,3.30
2019-03-01T20:23:07.259Z,3.30
2019-03-01T20:25:36.098Z,3.20
2019-03-01T20:28:30.541Z,3.20
2019-03-01T20:31:05.852Z,3.20
2019-03-01T20:36:56.313Z,3.20
2019-03-01T20:39:25.250Z,3.20
2019-03-01T20:41:54.538Z,3.20
2019-03-01T20:44:29.831Z,3.20
2019-03-01T20:46:58.641Z,3.20
2019-03-01T20:49:27.892Z,3.10
2019-03-01T20:52:25.007Z,3.10
2019-03-01T20:55:01.764Z,3.10
2019-03-01T20:57:39.192Z,3.10
2019-03-01T21:00:10.759Z,3.10
2019-03-01T21:02:39.825Z,3.10
2019-03-01T21:05:16.047Z,3.10
2019-03-01T21:07:48.180Z,3.10
2019-03-01T21:10:17.406Z,3.10
2019-03-01T21:12:52.773Z,3.10
2019-03-01T21:15:21.831Z,3.10
2019-03-01T21:17:53.065Z,3.10
2019-03-01T21:20:28.985Z,3.10
2019-03-01T21:22:57.884Z,3.10
2019-03-01T21:25:27.098Z,3.00
2019-03-01T21:28:02.370Z,3.00
2019-03-01T21:30:55.633Z,3.10
2019-03-01T21:33:36.166Z,3.00
2019-03-01T21:36:04.916Z,3.00
2019-03-01T21:38:33.662Z,3.00
2019-03-01T21:41:09.850Z,3.00
2019-03-01T21:43:39.873Z,3.00
2019-03-01T21:46:08.672Z,3.00
2019-03-01T21:48:44.955Z,3.00
2019-03-01T21:51:14.758Z,3.00
2019-03-01T21:53:44.485Z,3.00
2019-03-01T21:56:26.045Z,3.00
2019-03-01T21:58:54.775Z,3.00
2019-03-01T22:01:23.606Z,3.00
2019-03-01T22:03:59.296Z,3.00
2019-03-01T22:06:29.059Z,3.00
2019-03-01T22:08:57.848Z,3.00
2019-03-01T22:11:33.457Z,3.00
2019-03-01T22:14:02.249Z,3.00
2019-03-01T22:16:32.781Z,3.00
2019-03-01T22:19:08.696Z,3.00
2019-03-01T22:21:38.352Z,2.90
2019-03-01T22:24:07.242Z,2.90
2019-03-01T22:26:42.535Z,3.00
2019-03-01T22:29:12.097Z,2.90
2019-03-01T22:31:53.781Z,3.00
2019-03-01T22:34:31.039Z,2.90
2019-03-01T22:37:06.655Z,3.00
2019-03-01T22:39:35.430Z,3.00
2019-03-01T22:42:04.176Z,3.00
2019-03-01T22:44:39.835Z,2.90
2019-03-01T22:47:08.580Z,3.00
2019-03-01T22:49:37.381Z,3.00
2019-03-01T22:52:12.642Z,2.90
2019-03-01T22:54:41.442Z,3.00
2019-03-01T22:57:25.975Z,2.90
2019-03-01T22:59:54.197Z,2.90
2019-03-01T23:02:24.235Z,2.90
2019-03-01T23:05:00.411Z,2.90
2019-03-01T23:07:29.853Z,2.90
2019-03-01T23:09:58.610Z,2.90
2019-03-01T23:12:34.179Z,2.90
2019-03-01T23:15:06.659Z,2.90
2019-03-01T23:17:33.489Z,2.90
2019-03-01T23:20:08.773Z,2.90
2019-03-01T23:22:37.544Z,2.90
2019-03-01T23:25:07.700Z,2.90
2019-03-01T23:27:43.876Z,2.90
2019-03-01T23:30:19.326Z,2.80
2019-03-01T23:33:01.374Z,2.80
2019-03-01T23:35:30.180Z,2.90
2019-03-01T23:37:59.105Z,2.90
2019-03-01T23:40:35.854Z,2.90
2019-03-01T23:43:04.689Z,2.90
2019-03-01T23:45:33.437Z,2.80
2019-03-01T23:48:10.635Z,2.80
2019-03-01T23:50:40.231Z,2.80
2019-03-01T23:53:09.071Z,2.80
2019-03-01T23:55:44.992Z,2.80
2019-03-01T23:58:20.760Z,2.80
